Terminal Aerodrome Forecast
Issued by NWS Jacksonville, FL

Home | Current Version | Previous Version | Text Only | Print | Product List | Glossary On
Versions: 1 2 3 4 5 6 7 8 9 10 11 12 13 14 15 16 17 18 19 20 21 22
160
FTUS42 KJAX 021720
TAFGNV
TAF
KGNV 021720Z 0218/0318 15007KT P6SM FEW045 SCT070 BKN100
     FM022000 21008KT P6SM VCTS BKN040CB OVC060
     FM030300 18003KT P6SM SCT050 BKN200=

USA.gov is the U.S. government's official web portal to all federal, state and local government web resources and services.